Time;durP1;ratioP1;P1;durP2;ratioP2;P2;SDS_P1;SDS_P2;PMS_P1;PMS_P2;Temp;Humidity;BMP_temperature;BMP_pressure;BME280_temperature;BME280_humidity;BME280_pressure;Samples;Min_cycle;Max_cycle;Signal;HPM_P1;HPM_P2
2022/01/30 00:02:00;;;;;;;1.4;0.6;;;;;;;9.29;53.53125;943.671;;;;
2022/01/30 00:04:44;;;;;;;0.5;0.5;;;;;;;9.25;53.10547;943.6144;;;;
2022/01/30 00:07:23;;;;;;;0.6;0.5;;;;;;;8.86;53.8418;943.7165;;;;
2022/01/30 00:10:10;;;;;;;0.8;0.6;;;;;;;8.93;53.71289;943.6594;;;;
2022/01/30 00:12:46;;;;;;;1.5;0.5;;;;;;;8.81;54.04004;943.7422;;;;
2022/01/30 00:15:34;;;;;;;0.7;0.6;;;;;;;8.94;52.30469;943.705;;;;
2022/01/30 00:18:06;;;;;;;0.9;0.7;;;;;;;8.91;53.92676;943.8535;;;;
2022/01/30 00:20:35;;;;;;;0.8;0.7;;;;;;;8.72;53.67578;943.5776;;;;
2022/01/30 00:23:18;;;;;;;0.8;0.6;;;;;;;8.87;53.6377;943.3666;;;;
2022/01/30 00:25:57;;;;;;;0.5;0.5;;;;;;;8.84;54.12402;943.7256;;;;
2022/01/30 00:28:34;;;;;;;0.5;0.5;;;;;;;8.75;54.27051;943.6294;;;;
2022/01/30 00:31:13;;;;;;;0.7;0.7;;;;;;;8.95;53.94336;943.5422;;;;
2022/01/30 00:33:50;;;;;;;0.6;0.6;;;;;;;9.02;53.25781;943.4863;;;;
2022/01/30 00:36:29;;;;;;;0.6;0.6;;;;;;;8.81;54.24512;943.7026;;;;
2022/01/30 00:39:07;;;;;;;0.6;0.6;;;;;;;8.77;54.02344;943.6846;;;;
2022/01/30 00:41:44;;;;;;;0.5;0.5;;;;;;;8.87;53.94531;943.7525;;;;
2022/01/30 00:44:23;;;;;;;0.7;0.6;;;;;;;8.71;54.77637;943.6147;;;;
2022/01/30 00:47:02;;;;;;;0.6;0.6;;;;;;;8.72;54.75586;943.9064;;;;
2022/01/30 00:49:40;;;;;;;0.8;0.8;;;;;;;8.84;54.32715;944.0225;;;;
2022/01/30 00:52:18;;;;;;;1.2;0.7;;;;;;;8.9;54.1875;943.908;;;;
2022/01/30 00:54:56;;;;;;;1;0.7;;;;;;;8.96;54.3418;944.0842;;;;
2022/01/30 00:57:33;;;;;;;1.3;0.6;;;;;;;9.15;54.02539;943.815;;;;
2022/01/30 01:00:10;;;;;;;1;0.6;;;;;;;9.14;53.87598;943.8672;;;;
2022/01/30 01:02:48;;;;;;;0.6;0.5;;;;;;;9.24;53.72852;943.8778;;;;
2022/01/30 01:05:25;;;;;;;1.1;1;;;;;;;9.3;54.18066;943.8602;;;;
2022/01/30 01:08:10;;;;;;;1;0.9;;;;;;;9.33;54.19531;943.8036;;;;
2022/01/30 01:10:49;;;;;;;1.7;0.8;;;;;;;9.21;54.60156;943.7465;;;;
2022/01/30 01:13:51;;;;;;;0.7;0.6;;;;;;;8.91;55.70117;943.7629;;;;
2022/01/30 01:23:44;;;;;;;1.4;0.7;;;;;;;8.78;56.92383;943.9191;;;;
2022/01/30 01:26:22;;;;;;;0.9;0.7;;;;;;;8.8;56.7793;943.8426;;;;
2022/01/30 01:28:59;;;;;;;0.7;0.7;;;;;;;8.75;57.23828;943.9636;;;;
2022/01/30 01:31:37;;;;;;;0.8;0.6;;;;;;;8.6;58.07129;944.0007;;;;
2022/01/30 01:34:35;;;;;;;0.6;0.6;;;;;;;8.34;58.96777;944.007;;;;
2022/01/30 01:36:48;;;;;;;0.7;0.5;;;;;;;8.4;58.96484;944.0405;;;;
2022/01/30 01:39:25;;;;;;;0.5;0.5;;;;;;;8.39;59.30469;944.0998;;;;
2022/01/30 01:42:03;;;;;;;1;0.6;;;;;;;8.44;59.57324;944.1124;;;;
2022/01/30 01:44:47;;;;;;;1.3;0.7;;;;;;;8.56;59.1582;944.1553;;;;
2022/01/30 01:47:29;;;;;;;1;0.7;;;;;;;8.51;59.85449;944.0317;;;;
2022/01/30 01:50:16;;;;;;;0.5;0.5;;;;;;;8.81;58.83887;944.0083;;;;
2022/01/30 01:52:49;;;;;;;0.4;0.4;;;;;;;8.93;58.71777;943.9992;;;;
2022/01/30 01:55:22;;;;;;;0.5;0.5;;;;;;;8.93;58.92285;944.043;;;;
2022/01/30 01:58:00;;;;;;;0.5;0.5;;;;;;;8.75;59.79688;943.9008;;;;
2022/01/30 02:00:38;;;;;;;0.9;0.5;;;;;;;8.85;59.74316;943.8719;;;;
2022/01/30 02:03:17;;;;;;;0.4;0.4;;;;;;;8.86;59.99316;943.9117;;;;
2022/01/30 02:05:53;;;;;;;0.4;0.4;;;;;;;8.77;60.71973;944.0195;;;;
2022/01/30 02:08:30;;;;;;;0.5;0.5;;;;;;;8.69;61.36914;944.0145;;;;
2022/01/30 02:10:51;;;;;;;0.6;0.6;;;;;;;8.63;61.23633;943.8812;;;;
2022/01/30 02:13:31;;;;;;;0.5;0.4;;;;;;;8.78;61.17578;943.9158;;;;
2022/01/30 02:23:56;;;;;;;0.6;0.6;;;;;;;8.89;61.25;944.007;;;;
2022/01/30 02:25:48;;;;;;;0.4;0.4;;;;;;;8.96;61.62305;943.9968;;;;
2022/01/30 02:28:14;;;;;;;1;0.5;;;;;;;8.89;61.83008;944.0183;;;;
2022/01/30 02:30:39;;;;;;;1.3;0.7;;;;;;;8.74;62.36621;944.0411;;;;
2022/01/30 02:33:02;;;;;;;0.7;0.4;;;;;;;8.33;64.10059;944.0438;;;;
2022/01/30 02:35:29;;;;;;;1.2;0.4;;;;;;;8.36;64.47949;944.0536;;;;
2022/01/30 02:38:01;;;;;;;0.2;0.2;;;;;;;8.22;65.15137;944.0828;;;;
2022/01/30 02:40:37;;;;;;;0.4;0.4;;;;;;;8.21;65.28711;943.951;;;;
2022/01/30 02:42:57;;;;;;;0.4;0.4;;;;;;;8.36;64.66113;943.9583;;;;
2022/01/30 02:45:29;;;;;;;0.2;0.2;;;;;;;8.46;64.48438;943.8995;;;;
2022/01/30 02:47:58;;;;;;;0.2;0.2;;;;;;;8.51;64.68457;943.9642;;;;
2022/01/30 02:50:33;;;;;;;0.2;0.2;;;;;;;8.42;65.23926;943.9324;;;;
2022/01/30 02:52:56;;;;;;;1;0.3;;;;;;;8.38;65.38184;943.9225;;;;
2022/01/30 02:55:12;;;;;;;0.3;0.3;;;;;;;8.43;65.37598;943.9073;;;;
2022/01/30 02:57:40;;;;;;;0.3;0.3;;;;;;;8.46;65.44922;944.0137;;;;
2022/01/30 03:00:05;;;;;;;0.3;0.2;;;;;;;8.23;66.67578;944.0743;;;;
2022/01/30 03:02:31;;;;;;;0.1;0.1;;;;;;;8.16;66.8916;944.1633;;;;
2022/01/30 03:04:56;;;;;;;0.3;0.3;;;;;;;8.04;67.56543;944.0912;;;;
2022/01/30 03:07:22;;;;;;;0.2;0.2;;;;;;;7.97;67.61133;944.1238;;;;
2022/01/30 03:09:47;;;;;;;0.5;0.2;;;;;;;8.06;67.38672;944.1663;;;;
2022/01/30 03:12:14;;;;;;;0.4;0.3;;;;;;;8.15;67.60547;944.2186;;;;
2022/01/30 03:14:39;;;;;;;0.3;0.3;;;;;;;8.21;68.08105;944.2459;;;;
2022/01/30 03:17:07;;;;;;;0.3;0.3;;;;;;;8.16;68.11816;944.1514;;;;
2022/01/30 03:19:32;;;;;;;0.7;0.3;;;;;;;8.06;68.74902;944.2748;;;;
2022/01/30 03:22:01;;;;;;;0.1;0.1;;;;;;;8.08;68.29883;944.212;;;;
2022/01/30 03:24:30;;;;;;;0.1;0.1;;;;;;;7.98;68.75879;944.2498;;;;
2022/01/30 03:26:51;;;;;;;0.5;0.3;;;;;;;8.04;69.26855;944.1744;;;;
2022/01/30 03:29:19;;;;;;;0.2;0.2;;;;;;;7.96;69.41406;944.2367;;;;
2022/01/30 03:31:44;;;;;;;0.4;0.1;;;;;;;7.67;71.05566;944.3214;;;;
2022/01/30 03:34:12;;;;;;;0.2;0.2;;;;;;;7.78;70.81445;944.2852;;;;
2022/01/30 03:36:37;;;;;;;0.1;0.1;;;;;;;7.86;70.54395;944.2964;;;;
2022/01/30 03:39:04;;;;;;;0.2;0.2;;;;;;;7.73;71.80566;944.3027;;;;
2022/01/30 03:41:29;;;;;;;0.3;0.2;;;;;;;7.52;72.72168;944.3015;;;;
2022/01/30 03:43:55;;;;;;;0.2;0.2;;;;;;;7.48;73.05566;944.3481;;;;
2022/01/30 03:46:20;;;;;;;0.2;0.2;;;;;;;7.35;73.17969;944.3477;;;;
2022/01/30 03:48:46;;;;;;;0.1;0.1;;;;;;;7.35;73.48535;944.3326;;;;
2022/01/30 03:51:11;;;;;;;0.1;0.1;;;;;;;7.45;73.24316;944.2631;;;;
2022/01/30 03:53:37;;;;;;;0.1;0.1;;;;;;;7.56;72.7627;944.2745;;;;
2022/01/30 03:56:03;;;;;;;0.2;0.2;;;;;;;7.45;73.5498;944.2711;;;;
2022/01/30 03:58:29;;;;;;;0.2;0.2;;;;;;;7.29;74.46191;944.3608;;;;
2022/01/30 04:02:31;;;;;;;0.2;0.2;;;;;;;7.2;75.11523;944.2794;;;;
2022/01/30 04:05:00;;;;;;;0.1;0.1;;;;;;;6.92;76.37988;944.5044;;;;
2022/01/30 04:07:25;;;;;;;0.2;0.2;;;;;;;7.16;75.81152;944.6322;;;;
2022/01/30 04:09:50;;;;;;;0.1;0.1;;;;;;;7.19;75.0459;944.4572;;;;
2022/01/30 04:12:15;;;;;;;0.1;0.1;;;;;;;7.14;75.15137;944.5237;;;;
2022/01/30 04:14:41;;;;;;;0.5;0.2;;;;;;;6.92;75.83594;944.5098;;;;
2022/01/30 04:17:06;;;;;;;0.6;0.3;;;;;;;6.91;76.71777;944.508;;;;
2022/01/30 04:19:31;;;;;;;0.4;0.2;;;;;;;6.98;76.79688;944.4785;;;;
2022/01/30 04:21:56;;;;;;;0.1;0.1;;;;;;;7;76.5957;944.4648;;;;
2022/01/30 04:24:21;;;;;;;0.3;0.3;;;;;;;7.04;76.86426;944.4776;;;;
2022/01/30 04:26:48;;;;;;;0.2;0.2;;;;;;;6.96;76.71582;944.4423;;;;
2022/01/30 04:29:14;;;;;;;0.3;0.2;;;;;;;6.88;76.90332;944.4641;;;;
2022/01/30 04:31:39;;;;;;;0.5;0.3;;;;;;;6.83;77.30273;944.5314;;;;
2022/01/30 04:34:04;;;;;;;0.1;0.1;;;;;;;7.01;76.48633;944.4221;;;;
2022/01/30 04:36:36;;;;;;;0.4;0.3;;;;;;;6.97;76.43262;944.4718;;;;
2022/01/30 04:39:03;;;;;;;0.1;0.1;;;;;;;6.95;76.28223;944.5298;;;;
2022/01/30 04:41:35;;;;;;;0.1;0.1;;;;;;;6.9;76.23926;944.471;;;;
2022/01/30 04:53:41;;;;;;;0.2;0.2;;;;;;;7.03;75.71973;944.4219;;;;
2022/01/30 04:56:55;;;;;;;0.1;0.1;;;;;;;7.11;75.8125;944.2685;;;;
2022/01/30 04:58:25;;;;;;;0.1;0.1;;;;;;;7.1;75.62988;944.2999;;;;
2022/01/30 05:00:59;;;;;;;0.2;0.2;;;;;;;7.12;75.73535;944.3621;;;;
2022/01/30 05:03:27;;;;;;;0.2;0.1;;;;;;;7.17;76.02832;944.367;;;;
2022/01/30 05:05:54;;;;;;;0.2;0.2;;;;;;;7.11;76.46973;944.3128;;;;
2022/01/30 05:08:03;;;;;;;0.1;0.1;;;;;;;7.01;75.23047;944.2544;;;;
2022/01/30 05:10:26;;;;;;;0.2;0.2;;;;;;;7.13;74.90039;944.2194;;;;
2022/01/30 05:12:55;;;;;;;0.4;0.3;;;;;;;6.45;78.60352;944.3809;;;;
2022/01/30 05:15:22;;;;;;;0.6;0.2;;;;;;;6.52;78.7959;944.4078;;;;
2022/01/30 05:17:53;;;;;;;0.7;0.4;;;;;;;6.68;77.9668;944.4961;;;;
2022/01/30 05:20:21;;;;;;;0.2;0.2;;;;;;;6.78;76.9082;944.5159;;;;
2022/01/30 05:22:46;;;;;;;0.1;0.1;;;;;;;6.85;76.23047;944.4956;;;;
2022/01/30 05:25:19;;;;;;;0.4;0.2;;;;;;;6.83;74.51953;944.3835;;;;
2022/01/30 05:27:46;;;;;;;0.1;0.1;;;;;;;7;72.68945;944.366;;;;
2022/01/30 05:30:11;;;;;;;0.1;0.1;;;;;;;7.02;71.74219;944.3914;;;;
2022/01/30 05:32:36;;;;;;;0.2;0.2;;;;;;;7.02;71.53906;944.469;;;;
2022/01/30 05:35:01;;;;;;;0.2;0.2;;;;;;;6.99;71.88574;944.608;;;;
2022/01/30 05:37:26;;;;;;;0.2;0.2;;;;;;;7.18;71.04297;944.5756;;;;
2022/01/30 05:39:52;;;;;;;0.4;0.4;;;;;;;7.21;71.89941;944.5237;;;;
2022/01/30 05:42:18;;;;;;;0.5;0.5;;;;;;;7.2;72.38281;944.6071;;;;
2022/01/30 05:44:53;;;;;;;1.5;1.2;;;;;;;7.16;73.10254;944.7134;;;;
2022/01/30 05:47:10;;;;;;;0.8;0.4;;;;;;;7.03;72.55957;944.6983;;;;
2022/01/30 05:49:32;;;;;;;0.4;0.4;;;;;;;7.12;72.14453;944.8003;;;;
2022/01/30 05:51:59;;;;;;;0.5;0.4;;;;;;;6.98;72.00684;944.8158;;;;
2022/01/30 05:54:24;;;;;;;0.2;0.2;;;;;;;7.1;70.44238;944.7648;;;;
2022/01/30 05:56:51;;;;;;;0.1;0.1;;;;;;;7.26;68.64355;944.7709;;;;
2022/01/30 05:59:16;;;;;;;0.3;0.1;;;;;;;7.33;68.40723;944.8176;;;;
2022/01/30 06:01:42;;;;;;;0.2;0.2;;;;;;;7.14;69.78027;944.8934;;;;
2022/01/30 06:04:07;;;;;;;0.3;0.3;;;;;;;6.83;71.90332;944.7648;;;;
2022/01/30 06:06:35;;;;;;;0.9;0.8;;;;;;;7.18;71.49805;944.7808;;;;
2022/01/30 06:09:18;;;;;;;1.1;1;;;;;;;7.25;72.18848;944.8301;;;;
2022/01/30 06:11:26;;;;;;;0.3;0.3;;;;;;;6.96;74.07617;944.9402;;;;
2022/01/30 06:13:54;;;;;;;0.3;0.3;;;;;;;6.86;74.44531;944.9197;;;;
2022/01/30 06:16:19;;;;;;;0.4;0.3;;;;;;;7.08;72.89551;944.8036;;;;
2022/01/30 06:18:46;;;;;;;0.3;0.3;;;;;;;7.2;72.07715;944.8169;;;;
2022/01/30 06:21:11;;;;;;;1.4;0.8;;;;;;;7.24;73.16309;944.7102;;;;
2022/01/30 06:23:41;;;;;;;1.9;0.7;;;;;;;7.21;73.54199;944.7544;;;;
2022/01/30 06:26:04;;;;;;;0.8;0.7;;;;;;;7.21;73.33789;944.6253;;;;
2022/01/30 06:28:31;;;;;;;0.5;0.5;;;;;;;7.28;71.75098;944.7034;;;;
2022/01/30 06:30:56;;;;;;;0.6;0.6;;;;;;;7.23;73.99609;944.7976;;;;
2022/01/30 06:33:23;;;;;;;1.9;0.9;;;;;;;7.14;74.73047;944.8088;;;;
2022/01/30 06:35:48;;;;;;;0.4;0.3;;;;;;;7.02;73.10156;944.7606;;;;
2022/01/30 06:38:15;;;;;;;0.3;0.3;;;;;;;7.13;71.16211;944.7689;;;;
2022/01/30 06:40:40;;;;;;;0.7;0.6;;;;;;;7.29;71.58398;944.7997;;;;
2022/01/30 06:43:06;;;;;;;0.6;0.4;;;;;;;7.18;69.78711;944.8014;;;;
2022/01/30 06:45:32;;;;;;;0.7;0.2;;;;;;;7.27;68.83887;944.8164;;;;
2022/01/30 06:47:58;;;;;;;0.2;0.2;;;;;;;7.43;68.27344;944.7053;;;;
2022/01/30 06:50:24;;;;;;;0.6;0.6;;;;;;;7.31;69.41113;944.7852;;;;
2022/01/30 06:52:49;;;;;;;0.6;0.2;;;;;;;7.13;69.71191;944.7214;;;;
2022/01/30 06:55:14;;;;;;;0.1;0.1;;;;;;;7.21;68.23926;944.5666;;;;
2022/01/30 06:57:40;;;;;;;0.2;0.2;;;;;;;7.25;67.50879;944.5757;;;;
2022/01/30 07:00:05;;;;;;;0.2;0.2;;;;;;;7.32;67.80371;944.658;;;;
2022/01/30 07:02:32;;;;;;;0.1;0.1;;;;;;;7.34;67.87402;944.7394;;;;
2022/01/30 07:04:57;;;;;;;0.5;0.2;;;;;;;7.37;68.80957;944.7405;;;;
2022/01/30 07:07:24;;;;;;;1.4;1.2;;;;;;;7.31;68.69727;944.7861;;;;
2022/01/30 07:09:48;;;;;;;0.8;0.7;;;;;;;7.26;68.99414;944.8017;;;;
2022/01/30 07:12:16;;;;;;;0.9;0.6;;;;;;;7.24;68.92383;944.843;;;;
2022/01/30 07:14:41;;;;;;;0.3;0.3;;;;;;;7.18;67.9502;944.8234;;;;
2022/01/30 07:17:13;;;;;;;0.2;0.1;;;;;;;7.24;66.66992;944.8187;;;;
2022/01/30 07:19:41;;;;;;;0.2;0.2;;;;;;;7.1;68.0166;944.7796;;;;
2022/01/30 07:22:06;;;;;;;0.6;0.4;;;;;;;7.18;67.82715;944.8442;;;;
2022/01/30 07:24:34;;;;;;;0.7;0.7;;;;;;;7.22;67.13086;944.9217;;;;
2022/01/30 07:26:59;;;;;;;1.5;1.4;;;;;;;7.34;67.7168;944.9043;;;;
2022/01/30 07:29:26;;;;;;;2.1;1.8;;;;;;;6.97;70.27246;944.9642;;;;
2022/01/30 07:31:51;;;;;;;0.6;0.6;;;;;;;6.8;71.80664;944.9891;;;;
2022/01/30 07:34:20;;;;;;;1;0.9;;;;;;;7.02;71.20996;944.9694;;;;
2022/01/30 07:36:45;;;;;;;2.4;1.7;;;;;;;7.18;71.05566;944.9433;;;;
2022/01/30 07:39:11;;;;;;;2.3;1.8;;;;;;;7.32;69.88867;944.8987;;;;
2022/01/30 07:41:36;;;;;;;1;0.9;;;;;;;7.07;70.59473;944.9955;;;;
2022/01/30 07:44:04;;;;;;;0.8;0.7;;;;;;;7.56;68.41895;944.9788;;;;
2022/01/30 07:46:29;;;;;;;3;2.1;;;;;;;7.69;67.65625;945.0084;;;;
2022/01/30 07:48:56;;;;;;;1.6;1.5;;;;;;;7.97;66.89551;944.9769;;;;
2022/01/30 07:51:21;;;;;;;3.5;3.2;;;;;;;8.22;65.58398;944.8643;;;;
2022/01/30 07:53:47;;;;;;;4.9;4.2;;;;;;;8.61;64.92676;944.8483;;;;
2022/01/30 07:56:13;;;;;;;2.3;2.1;;;;;;;9.24;63.21191;944.8522;;;;
2022/01/30 07:58:38;;;;;;;3.5;3;;;;;;;10.05;59.05371;944.7608;;;;
2022/01/30 08:01:03;;;;;;;3.8;2.6;;;;;;;10.43;57.72559;944.8055;;;;
2022/01/30 08:03:30;;;;;;;2.2;2;;;;;;;11.31;55.85059;944.6252;;;;
2022/01/30 08:05:55;;;;;;;1.1;0.8;;;;;;;11.91;53.17969;944.6933;;;;
2022/01/30 08:08:22;;;;;;;0.7;0.7;;;;;;;11.97;49.20117;944.7596;;;;
2022/01/30 08:10:47;;;;;;;0.2;0.2;;;;;;;12.12;45.48145;944.655;;;;
2022/01/30 08:13:16;;;;;;;0.4;0.4;;;;;;;13;42.53223;944.6244;;;;
2022/01/30 08:15:40;;;;;;;0.3;0.1;;;;;;;12.12;43.79785;944.7644;;;;
2022/01/30 08:18:07;;;;;;;0.3;0.3;;;;;;;11.54;45.83398;944.7402;;;;
2022/01/30 08:20:32;;;;;;;0.4;0.4;;;;;;;12.13;45.53027;944.7558;;;;
2022/01/30 08:23:00;;;;;;;0.2;0.2;;;;;;;11.78;46.17969;944.8443;;;;
2022/01/30 08:25:24;;;;;;;0.4;0.4;;;;;;;11.23;49.98633;944.9285;;;;
2022/01/30 08:27:51;;;;;;;1.5;1.3;;;;;;;10.88;50.55176;944.8267;;;;
2022/01/30 08:30:16;;;;;;;0.4;0.3;;;;;;;11.54;47.92773;944.7034;;;;
2022/01/30 08:32:42;;;;;;;0.8;0.6;;;;;;;10.89;49.43262;944.8651;;;;
2022/01/30 08:35:07;;;;;;;0.4;0.4;;;;;;;10.77;50.41406;944.8881;;;;
2022/01/30 08:37:33;;;;;;;1;1;;;;;;;10.4;50.32422;944.7709;;;;
2022/01/30 08:39:57;;;;;;;0.6;0.2;;;;;;;10.4;49.92578;944.6685;;;;
2022/01/30 08:42:24;;;;;;;0.6;0.6;;;;;;;11.36;46.79785;944.7034;;;;
2022/01/30 08:44:49;;;;;;;1.1;0.8;;;;;;;11.91;46.33008;944.718;;;;
2022/01/30 08:47:16;;;;;;;0.6;0.3;;;;;;;12.74;45.77637;944.738;;;;
2022/01/30 08:49:42;;;;;;;0.9;0.9;;;;;;;13.2;44.96387;944.8052;;;;
2022/01/30 08:52:08;;;;;;;0.5;0.5;;;;;;;12.11;47.72754;944.7076;;;;
2022/01/30 08:54:33;;;;;;;0.4;0.4;;;;;;;11.14;49.54199;944.9187;;;;
2022/01/30 08:56:59;;;;;;;0.3;0.3;;;;;;;10.65;51.16406;944.9799;;;;
2022/01/30 08:59:24;;;;;;;0.2;0.2;;;;;;;10.25;52.62305;945.0067;;;;
2022/01/30 09:01:50;;;;;;;1.3;1.2;;;;;;;10.45;53.73242;945.1331;;;;
2022/01/30 09:04:15;;;;;;;0.5;0.5;;;;;;;11.34;51.1084;945.0683;;;;
2022/01/30 09:06:41;;;;;;;0.9;0.9;;;;;;;10.8;52.13086;945.1533;;;;
2022/01/30 09:09:06;;;;;;;0.2;0.2;;;;;;;10.75;52.10156;945.0717;;;;
2022/01/30 09:11:31;;;;;;;0.8;0.3;;;;;;;10.8;52.3125;945.1802;;;;
2022/01/30 09:13:58;;;;;;;0.2;0.2;;;;;;;11;52.41699;945.0584;;;;
2022/01/30 09:16:23;;;;;;;0.2;0.2;;;;;;;11.22;52.45508;945.0415;;;;
2022/01/30 09:18:51;;;;;;;0.6;0.6;;;;;;;10.62;53.1709;945.1394;;;;
2022/01/30 09:21:16;;;;;;;0.2;0.2;;;;;;;10.05;53.56738;945.0449;;;;
2022/01/30 09:23:44;;;;;;;2.8;2.1;;;;;;;10.31;54.30762;945.1147;;;;
2022/01/30 09:26:10;;;;;;;1.8;1.7;;;;;;;10.47;54.49902;945.2347;;;;
2022/01/30 09:28:37;;;;;;;0.5;0.4;;;;;;;10.48;54.72852;945.1552;;;;
2022/01/30 09:31:02;;;;;;;2.1;1.9;;;;;;;10.75;54.5459;945.0215;;;;
2022/01/30 09:33:27;;;;;;;1.2;0.6;;;;;;;10.83;53.77832;945.0854;;;;
2022/01/30 09:35:53;;;;;;;1.6;1.2;;;;;;;11.25;52.77832;945.1193;;;;
2022/01/30 09:38:19;;;;;;;6.3;5.7;;;;;;;11.22;53.4043;945.1761;;;;
2022/01/30 09:40:47;;;;;;;0.3;0.3;;;;;;;11.44;50.13672;945.1038;;;;
2022/01/30 09:43:14;;;;;;;0.9;0.5;;;;;;;11.36;51.64844;945.0974;;;;
2022/01/30 09:45:40;;;;;;;0.4;0.4;;;;;;;11.09;53.16016;945.3896;;;;
2022/01/30 09:48:06;;;;;;;0.4;0.4;;;;;;;10.66;52.93555;945.5447;;;;
2022/01/30 09:50:35;;;;;;;0.9;0.9;;;;;;;10.93;54.01953;945.4778;;;;
2022/01/30 09:52:58;;;;;;;0.5;0.5;;;;;;;11.31;53.08398;945.5844;;;;
2022/01/30 09:55:24;;;;;;;0.7;0.3;;;;;;;10.68;54.83398;945.7679;;;;
2022/01/30 09:57:49;;;;;;;0.9;0.3;;;;;;;10.71;55.47852;945.74;;;;
2022/01/30 10:00:16;;;;;;;0.5;0.3;;;;;;;10.19;58.65234;945.8334;;;;
2022/01/30 10:02:41;;;;;;;0.2;0.2;;;;;;;10.75;56.83105;945.7336;;;;
2022/01/30 10:05:09;;;;;;;0.4;0.3;;;;;;;10.83;56.75;945.785;;;;
2022/01/30 10:07:35;;;;;;;3.5;1.7;;;;;;;10.23;57.90234;945.8022;;;;
2022/01/30 10:10:00;;;;;;;3.8;2.4;;;;;;;10.14;58.48438;945.9205;;;;
2022/01/30 10:12:28;;;;;;;4.3;2.8;;;;;;;10.1;58.52441;946.0494;;;;
2022/01/30 10:14:50;;;;;;;0.3;0.3;;;;;;;10.38;57.14746;945.9266;;;;
2022/01/30 10:17:15;;;;;;;1.3;1.2;;;;;;;10.39;57.59277;945.8615;;;;
2022/01/30 10:19:42;;;;;;;0.2;0.2;;;;;;;10.28;57.54492;945.7468;;;;
2022/01/30 10:22:08;;;;;;;1.3;1.2;;;;;;;10.26;59.00195;945.8761;;;;
2022/01/30 10:24:33;;;;;;;1.1;1;;;;;;;10.37;58.20801;945.7863;;;;
2022/01/30 10:26:59;;;;;;;0.3;0.3;;;;;;;10.67;55.96387;945.6349;;;;
2022/01/30 10:29:23;;;;;;;0.2;0.2;;;;;;;10.53;55.70605;945.5639;;;;
2022/01/30 10:31:48;;;;;;;1.6;0.3;;;;;;;10.5;56.79883;945.5737;;;;
2022/01/30 10:34:13;;;;;;;1.3;0.8;;;;;;;10.5;57.37988;945.7727;;;;
2022/01/30 10:36:42;;;;;;;0.2;0.2;;;;;;;9.95;54.125;945.5324;;;;
2022/01/30 10:39:04;;;;;;;0.2;0.2;;;;;;;10.46;57.16797;945.5536;;;;
2022/01/30 10:41:31;;;;;;;0.1;0.1;;;;;;;10.27;55.2959;945.445;;;;
2022/01/30 10:43:56;;;;;;;0.1;0.1;;;;;;;10.41;56.70605;945.51;;;;
2022/01/30 10:46:21;;;;;;;1.7;1.3;;;;;;;10.08;57.19922;945.4568;;;;
2022/01/30 10:48:46;;;;;;;1.6;1.3;;;;;;;9.96;58.89258;945.3359;;;;
2022/01/30 10:51:11;;;;;;;0.4;0.4;;;;;;;9.58;58.19336;945.2869;;;;
2022/01/30 10:53:36;;;;;;;1.3;0.4;;;;;;;9.53;59.69922;945.4039;;;;
2022/01/30 10:56:01;;;;;;;0.4;0.3;;;;;;;9.45;59.12012;945.2899;;;;
2022/01/30 10:58:28;;;;;;;0.3;0.3;;;;;;;9.24;58.625;945.2629;;;;
2022/01/30 11:00:53;;;;;;;0.2;0.2;;;;;;;9.54;59.05273;945.2213;;;;
2022/01/30 11:03:21;;;;;;;0.7;0.5;;;;;;;9.88;58.60938;945.0862;;;;
2022/01/30 11:05:47;;;;;;;0.9;0.8;;;;;;;9.88;57.92383;945.0311;;;;
2022/01/30 11:08:12;;;;;;;2.2;0.6;;;;;;;9.96;58.37988;945.2015;;;;
2022/01/30 11:10:38;;;;;;;0.9;0.5;;;;;;;10.23;57.04688;945.1655;;;;
2022/01/30 11:13:09;;;;;;;0.2;0.2;;;;;;;10.11;57.38379;944.8837;;;;
2022/01/30 11:15:37;;;;;;;0.3;0.2;;;;;;;9.97;56.94531;945.2242;;;;
2022/01/30 11:17:58;;;;;;;0.4;0.3;;;;;;;9.86;58.11523;945.2581;;;;
2022/01/30 11:20:27;;;;;;;1.9;0.5;;;;;;;9.67;59.08105;945.2096;;;;
2022/01/30 11:22:52;;;;;;;0.3;0.3;;;;;;;9.87;58.37988;945.28;;;;
2022/01/30 11:25:20;;;;;;;0.4;0.4;;;;;;;9.36;58.60645;945.1172;;;;
2022/01/30 11:27:46;;;;;;;1.1;1;;;;;;;9.38;60.05469;945.1456;;;;
2022/01/30 11:30:17;;;;;;;0.3;0.3;;;;;;;9.47;57.03809;945.0464;;;;
2022/01/30 11:32:40;;;;;;;1.4;0.6;;;;;;;9.8;56.83008;945.0829;;;;
2022/01/30 11:35:10;;;;;;;3;1.3;;;;;;;9.95;57.0332;945.1426;;;;
2022/01/30 11:37:36;;;;;;;0.6;0.5;;;;;;;9.98;55.22461;945.043;;;;
2022/01/30 11:40:01;;;;;;;0.6;0.5;;;;;;;9.84;56.54102;945.1225;;;;
2022/01/30 11:42:28;;;;;;;0.2;0.2;;;;;;;9.84;56.18652;945.0762;;;;
2022/01/30 11:44:53;;;;;;;4.8;3.1;;;;;;;9.91;55.80957;945.2189;;;;
2022/01/30 11:47:18;;;;;;;0.3;0.3;;;;;;;10.05;56.13477;944.7361;;;;
2022/01/30 11:49:44;;;;;;;1.8;0.6;;;;;;;10.24;54.92676;944.8936;;;;
2022/01/30 11:52:10;;;;;;;2.4;1.9;;;;;;;10.41;53.81836;945.0112;;;;
2022/01/30 11:54:35;;;;;;;8.3;4.7;;;;;;;10.44;54.05078;944.8033;;;;
2022/01/30 11:57:00;;;;;;;3.3;2.5;;;;;;;10.76;51.97656;944.8011;;;;
2022/01/30 11:59:25;;;;;;;1.9;0.6;;;;;;;11.88;47.12891;944.5914;;;;
2022/01/30 12:01:50;;;;;;;1;0.3;;;;;;;13.72;43.85547;944.6579;;;;
2022/01/30 12:04:16;;;;;;;0.5;0.3;;;;;;;15.68;39.62793;944.8142;;;;
2022/01/30 12:06:41;;;;;;;0.4;0.3;;;;;;;16.4;35.97754;944.5378;;;;
2022/01/30 12:09:07;;;;;;;0.4;0.3;;;;;;;18.11;35.20117;944.7045;;;;
2022/01/30 12:11:32;;;;;;;1.3;0.2;;;;;;;19.86;32.04004;944.6033;;;;
2022/01/30 12:13:57;;;;;;;0.7;0.1;;;;;;;17.88;31.9082;944.3945;;;;
2022/01/30 12:16:25;;;;;;;0.8;0.2;;;;;;;17.12;33.24414;944.389;;;;
2022/01/30 12:18:51;;;;;;;0.8;0.3;;;;;;;17.19;32.40332;944.3233;;;;
2022/01/30 12:21:16;;;;;;;0.2;0.2;;;;;;;16.4;32.87695;944.1761;;;;
2022/01/30 12:23:41;;;;;;;0.2;0.2;;;;;;;17.36;33.25098;944.1688;;;;
2022/01/30 12:26:08;;;;;;;2.7;0.3;;;;;;;18.29;33.11133;944.454;;;;
2022/01/30 12:28:58;;;;;;;1.6;0.4;;;;;;;20.23;30.12891;944.5419;;;;
2022/01/30 12:31:07;;;;;;;1.9;0.3;;;;;;;18.79;31.10156;944.2709;;;;
2022/01/30 12:33:33;;;;;;;0.4;0.2;;;;;;;20.47;28.98926;944.216;;;;
2022/01/30 12:35:58;;;;;;;0.7;0.6;;;;;;;21.26;28.05859;944.3113;;;;
2022/01/30 12:38:23;;;;;;;2.2;0.5;;;;;;;22.58;26.72168;944.4236;;;;
2022/01/30 12:40:51;;;;;;;1.1;0.4;;;;;;;22.87;26.56348;944.2929;;;;
2022/01/30 12:43:16;;;;;;;1;0.2;;;;;;;24.1;24.82324;944.3482;;;;
2022/01/30 12:45:41;;;;;;;0.2;0.2;;;;;;;25.46;23.03223;944.3614;;;;
2022/01/30 12:48:06;;;;;;;0.1;0.1;;;;;;;25.27;22.82227;944.3466;;;;
2022/01/30 12:50:34;;;;;;;0.5;0.3;;;;;;;25.8;22.04492;944.2958;;;;
2022/01/30 12:52:56;;;;;;;0.3;0.2;;;;;;;25.71;22.39453;944.231;;;;
2022/01/30 12:55:23;;;;;;;0.2;0.2;;;;;;;26.8;21.30078;944.2319;;;;
2022/01/30 12:57:47;;;;;;;4.8;0.8;;;;;;;27.81;20.58887;944.2816;;;;
2022/01/30 13:00:12;;;;;;;0.6;0.6;;;;;;;28.26;19.62305;944.16;;;;
2022/01/30 13:02:38;;;;;;;0.1;0.1;;;;;;;28.73;19.70313;944.2184;;;;
2022/01/30 13:05:06;;;;;;;1.3;0.3;;;;;;;28.58;18.93555;944.2461;;;;
2022/01/30 13:07:31;;;;;;;1.2;0.7;;;;;;;27.32;20.30566;944.2939;;;;
2022/01/30 13:09:57;;;;;;;0.3;0.3;;;;;;;25.21;21.95703;944.3348;;;;
2022/01/30 13:12:22;;;;;;;0.2;0.1;;;;;;;25.41;22.6875;944.1617;;;;
2022/01/30 13:14:47;;;;;;;0.5;0.2;;;;;;;24.42;23.68555;944.2271;;;;
2022/01/30 13:17:14;;;;;;;0.6;0.2;;;;;;;24.07;23.53711;944.1305;;;;
2022/01/30 13:19:39;;;;;;;0.6;0.3;;;;;;;22.84;25.9502;944.1069;;;;
2022/01/30 13:22:05;;;;;;;0.1;0.1;;;;;;;25.02;23.08105;944.1718;;;;
2022/01/30 13:24:30;;;;;;;0.5;0.2;;;;;;;26.26;22.00879;944.2848;;;;
2022/01/30 13:26:56;;;;;;;1;0.2;;;;;;;20.3;28.47656;944.2112;;;;
2022/01/30 13:29:21;;;;;;;0.7;0.4;;;;;;;19.71;29.77832;944.375;;;;
2022/01/30 13:31:49;;;;;;;0.6;0.3;;;;;;;23.51;24.7666;944.2472;;;;
2022/01/30 13:34:14;;;;;;;0.6;0.2;;;;;;;24.02;23.83008;944.0405;;;;
2022/01/30 13:36:40;;;;;;;0.7;0.2;;;;;;;23.22;23.76367;944.1774;;;;
2022/01/30 13:39:07;;;;;;;0.4;0.3;;;;;;;24.02;23.14648;944.1823;;;;
2022/01/30 13:41:31;;;;;;;0.2;0.2;;;;;;;21.43;26.25488;944.1806;;;;
2022/01/30 13:43:59;;;;;;;0.2;0.2;;;;;;;21.16;26.14551;944.2756;;;;
2022/01/30 13:48:48;;;;;;;0.2;0.1;;;;;;;21.55;25.96875;944.262;;;;
2022/01/30 13:51:15;;;;;;;0.2;0.2;;;;;;;22.07;25.12012;944.1947;;;;
2022/01/30 13:53:40;;;;;;;0.7;0.3;;;;;;;22.09;25.90723;944.1414;;;;
2022/01/30 13:56:07;;;;;;;2.3;0.9;;;;;;;21.53;26.07324;944.2536;;;;
2022/01/30 13:58:31;;;;;;;1.4;0.3;;;;;;;22.67;24.22656;944.1298;;;;
2022/01/30 14:00:58;;;;;;;0.2;0.2;;;;;;;24.7;22.03809;944.1252;;;;
2022/01/30 14:03:23;;;;;;;1.8;1.1;;;;;;;23.72;22.63672;944.1713;;;;
2022/01/30 14:05:49;;;;;;;0.9;0.5;;;;;;;23.78;23.47559;944.1873;;;;
2022/01/30 14:08:14;;;;;;;1;0.4;;;;;;;25.31;21.82031;944.213;;;;
2022/01/30 14:10:40;;;;;;;1.6;0.5;;;;;;;25.66;21.27051;944.2136;;;;
2022/01/30 14:13:05;;;;;;;1.8;0.9;;;;;;;25.09;20.99512;944.2169;;;;
2022/01/30 14:15:36;;;;;;;0.8;0.5;;;;;;;25.54;20.96875;944.13;;;;
2022/01/30 14:18:00;;;;;;;0.8;0.4;;;;;;;26.79;19.62988;944.2534;;;;
2022/01/30 14:20:27;;;;;;;0.2;0.2;;;;;;;23.12;23.18164;944.1805;;;;
2022/01/30 14:22:52;;;;;;;0.2;0.2;;;;;;;21.84;25.30664;944.3677;;;;
2022/01/30 14:25:23;;;;;;;0.2;0.2;;;;;;;21.17;26.14551;944.3054;;;;
2022/01/30 14:27:52;;;;;;;0.8;0.2;;;;;;;19.01;27.76465;944.2619;;;;
2022/01/30 14:30:17;;;;;;;0.1;0.1;;;;;;;19.9;28.1582;944.3245;;;;
2022/01/30 14:32:45;;;;;;;2.6;1.6;;;;;;;19.3;28.33008;944.4013;;;;
2022/01/30 14:35:10;;;;;;;0.6;0.3;;;;;;;19.46;29.43652;944.4283;;;;
2022/01/30 14:37:36;;;;;;;3.2;0.6;;;;;;;19.26;28.2002;944.3792;;;;
2022/01/30 14:40:02;;;;;;;0.8;0.5;;;;;;;19.78;26.87988;944.2826;;;;
2022/01/30 14:42:29;;;;;;;0.5;0.5;;;;;;;21.44;25.45898;944.332;;;;
2022/01/30 14:44:54;;;;;;;0.5;0.5;;;;;;;20.34;26.5752;944.3813;;;;
2022/01/30 14:47:19;;;;;;;4.8;1.4;;;;;;;19.1;28.56152;944.4272;;;;
2022/01/30 14:49:46;;;;;;;0.3;0.3;;;;;;;17.86;29.93262;944.4986;;;;
2022/01/30 14:52:10;;;;;;;5.4;1.3;;;;;;;18.07;30.02832;944.472;;;;
2022/01/30 14:54:35;;;;;;;0.8;0.5;;;;;;;18.59;28.99414;944.4285;;;;
2022/01/30 14:57:04;;;;;;;0.8;0.5;;;;;;;17.59;30.38965;944.4459;;;;
2022/01/30 14:59:28;;;;;;;3.8;0.8;;;;;;;17.26;31.0166;944.3908;;;;
2022/01/30 15:01:54;;;;;;;2.7;0.8;;;;;;;18.73;29.1543;944.337;;;;